• Join FlightAware (Why Join?)
  • Login
  • US Flag 
08:49AM EDT


 

Airport Tracker/Info


-or-


 

Live Flight TrackerFlight Track Log ✈ UAL495 ✈ 26-Apr-2013 ✈ KLAX - KDEN

Flight Track Log - Related Links

Times and Time Zones

All times are in EDT time to prevent confusion due to time zone crossing. See the UAL495 flight status page for this flight to view local times or setup timezone preferences in your user account.

Time Position Orientation Groundspeed Altitude Reporting Facility
EDT Latitude Longitude Course Direction KTS MPH feet Rate Location/Type
08:50AM 33.9342 -118.4314 90° East 178 205 1,500  Level Los Angeles Center
08:51AM 33.8928 -118.4919 231° Southwest 232 267 4,200 2,940 Climbing Los Angeles Center
08:52AM 33.8278 -118.5172 198° South 256 295 7,500 3,000 Climbing Los Angeles Center
08:53AM 33.7727 -118.6302 132° Southeast  Level FlightAware Approximate
08:53AM 33.7583 -118.5208 182° South 278 320 10,300  Level Los Angeles Center
08:54AM 33.6895 -118.5244 134° Southeast  Level FlightAware Approximate
08:54AM 33.6800 -118.4983 167° South 314 361 12,600  Level Los Angeles Center
08:55AM 33.6549 -118.3872 116° Southeast  Level FlightAware Approximate
08:55AM 33.6783 -118.3769 91° East 331 381 14,900  Level Los Angeles Center
08:56AM 33.6333 -118.2477 90° East  Level FlightAware Approximate
08:56AM 33.7153 -118.2678 68° East 366 421 17,100  Level Los Angeles Center
08:57AM 33.7553 -118.1503 68° East 384 442 19,400 2,160 Climbing Los Angeles Center
08:58AM 33.8086 -118.0356 61° Northeast 404 465 21,500 2,100 Climbing Los Angeles Center
09:00AM 33.8975 -117.9539 37° Northeast 408 470 23,700 1,980 Climbing Los Angeles Center
09:01AM 33.9872 -117.8689 38° Northeast 411 473 25,600 1,740 Climbing Los Angeles Center
09:02AM 34.0797 -117.7833 37° Northeast 419 482 27,300 1,560 Climbing Los Angeles Center
09:03AM 34.1625 -117.6781 46° Northeast 435 501 28,800 1,260 Climbing Los Angeles Center
09:04AM 34.2447 -117.5653 49° Northeast 447 514 29,900 1,080 Climbing Los Angeles Center
09:05AM 34.3297 -117.4500 48° Northeast 457 526 31,000 1,380 Climbing Los Angeles Center
09:06AM 34.4206 -117.3256 48° Northeast 471 542 32,800 1,680 Climbing Los Angeles Center
09:07AM 34.5044 -117.2100 49° Northeast 462 532 34,500 1,380 Climbing Los Angeles Center
09:08AM 34.5878 -117.0953 49° Northeast 457 526 35,600 960 Climbing Los Angeles Center
09:09AM 34.6728 -116.9772 49° Northeast 465 535 36,500 660 Climbing Los Angeles Center
09:10AM 34.7589 -116.8592 48° Northeast 470 541 37,000 360 Climbing Los Angeles Center
09:11AM 34.8456 -116.7383 49° Northeast 473 544 37,300 420 Climbing Los Angeles Center
09:12AM 34.9486 -116.5942 49° Northeast 474 545 37,900 480 Climbing Los Angeles Center
09:13AM 35.0381 -116.4775 47° Northeast 473 544 38,300 420 Climbing Los Angeles Center
09:14AM 35.1308 -116.3639 45° Northeast 473 544 38,800 300 Climbing Los Angeles Center
09:15AM 35.2217 -116.2511 45° Northeast 469 540 39,000 60 Climbing Los Angeles Center
09:16AM 35.3131 -116.1322 47° Northeast 477 549 39,000  Level Los Angeles Center
09:17AM 35.4050 -116.0172 46° Northeast 475 547 39,000  Level Los Angeles Center
09:18AM 35.4994 -115.9033 44° Northeast 475 547 39,000  Level Los Angeles Center
09:19AM 35.6006 -115.7733 46° Northeast 471 542 39,000  Level Los Angeles Center
09:20AM 35.6908 -115.6578 46° Northeast 469 540 39,000  Level Los Angeles Center
09:21AM 35.7811 -115.5417 46° Northeast 471 542 39,000  Level Los Angeles Center
09:22AM 35.8697 -115.4250 47° Northeast 468 539 39,000  Level Los Angeles Center
09:23AM 35.9278 -115.2811 63° Northeast 472 543 39,000  Level Los Angeles Center
09:24AM 35.9797 -115.1372 66° East 465 535 39,000  Level Los Angeles Center
09:25AM 36.0344 -114.9917 65° Northeast 469 540 39,000  Level Los Angeles Center
09:26AM 36.0889 -114.8467 65° Northeast 469 540 39,000  Level Los Angeles Center
09:27AM 36.1422 -114.7003 66° East 469 540 39,000  Level Los Angeles Center
09:28AM 36.2069 -114.5236 66° East 471 542 39,000  Level Los Angeles Center
09:29AM 36.2611 -114.3769 65° Northeast 471 542 39,000  Level Los Angeles Center
09:30AM 36.3139 -114.2283 66° East 472 543 39,000  Level Los Angeles Center
09:31AM 36.3675 -114.0803 66° East 472 543 39,000  Level Los Angeles Center
09:32AM 36.4200 -113.9322 66° East 471 542 39,000 -240 Level Los Angeles Center
09:33AM 36.4739 -113.7833 66° East 473 544 38,600 -720 Descending Los Angeles Center
09:34AM 36.5275 -113.6331 66° East 471 542 37,600 -840 Descending Los Angeles Center
09:35AM 36.5819 -113.4789 66° East 482 555 37,000 -300 Descending Los Angeles Center
09:36AM 36.6353 -113.3267 66° East 484 557 37,000  Level Los Angeles Center
09:37AM 36.6881 -113.1739 67° East 483 556 37,000  Level Los Angeles Center
09:38AM 36.7411 -113.0203 67° East 484 557 37,000  Level Los Angeles Center
09:39AM 36.8056 -112.8350 66° East 487 560 37,000  Level Los Angeles Center
09:40AM 36.8569 -112.6817 67° East 483 556 37,000  Level Los Angeles Center
09:41AM 36.9097 -112.5289 67° East 482 555 37,000  Level Los Angeles Center
09:42AM 36.9622 -112.3761 67° East 481 554 37,000  Level Los Angeles Center
09:43AM 37.0131 -112.2236 67° East 479 551 37,000  Level Los Angeles Center
09:44AM 37.0536 -112.1022 67° East 481 554 37,000  Level Denver Center
09:45AM 37.1139 -111.9200 67° East 477 549 37,000  Level Denver Center
09:46AM 37.1656 -111.7697 67° East 474 545 37,000  Level Denver Center
09:47AM 37.2142 -111.6200 68° East 469 540 37,000  Level Denver Center
09:48AM 37.2633 -111.4689 68° East 469 540 37,000  Level Denver Center
09:49AM 37.3133 -111.3192 67° East 468 539 37,000  Level Denver Center
09:50AM 37.3625 -111.1681 68° East 468 539 37,000  Level Denver Center
09:51AM 37.4114 -111.0175 68° East 467 537 37,000  Level Denver Center
09:52AM 37.4608 -110.8661 68° East 469 540 37,000  Level Denver Center
09:53AM 37.5097 -110.7142 68° East 471 542 37,000  Level Denver Center
09:54AM 37.5581 -110.5619 68° East 471 542 37,000  Level Denver Center
09:55AM 37.6144 -110.3836 68° East 471 542 37,000  Level Denver Center
09:56AM 37.6611 -110.2358 68° East 473 544 37,000  Level Denver Center
09:57AM 37.7075 -110.0872 68° East 474 545 37,000  Level Denver Center
09:58AM 37.7606 -109.9133 69° East 476 548 37,000  Level Denver Center
09:59AM 37.8069 -109.7647 68° East 474 545 37,000  Level Denver Center
10:00AM 37.8536 -109.6147 68° East 478 550 37,000  Level Denver Center
10:01AM 37.9072 -109.4386 69° East 479 551 37,000  Level Denver Center
10:02AM 37.9531 -109.2883 69° East 478 550 37,000  Level Denver Center
10:03AM 38.0072 -109.1111 69° East 480 552 37,000  Level Denver Center
10:04AM 38.0531 -108.9583 69° East 482 555 37,000  Level Denver Center
10:05AM 38.1031 -108.7861 70° East 487 560 37,000  Level Denver Center
10:06AM 38.1486 -108.6342 69° East 483 556 37,000  Level Denver Center
10:07AM 38.1931 -108.4828 69° East 480 552 37,000  Level Denver Center
10:08AM 38.2458 -108.3064 69° East 478 550 37,000  Level Denver Center
10:09AM 38.2897 -108.1553 70° East 478 550 37,000  Level Denver Center
10:10AM 38.3403 -107.9786 70° East 476 548 37,000  Level Denver Center
10:12AM 38.3853 -107.8272 69° East 478 550 37,000  Level Denver Center
10:13AM 38.4289 -107.6767 70° East 476 548 37,000 -360 Level Denver Center
10:14AM 38.4919 -107.5050 65° Northeast 480 552 36,300 -960 Descending Denver Center
10:15AM 38.5544 -107.3656 60° Northeast 475 547 35,100 -1,320 Descending Denver Center
10:16AM 38.6283 -107.2006 60° Northeast 478 550 33,600 -1,380 Descending Denver Center
10:17AM 38.6914 -107.0569 61° Northeast 465 535 32,300 -1,260 Descending Denver Center
10:18AM 38.7525 -106.9206 60° Northeast 447 514 31,100 -1,140 Descending Denver Center
10:19AM 38.8108 -106.7881 61° Northeast 433 498 30,000 -1,080 Descending Denver Center
10:20AM 38.8664 -106.6600 61° Northeast 417 480 28,900 -1,140 Descending Denver Center
10:21AM 38.9308 -106.5228 59° Northeast 406 467 27,700 -900 Descending Denver Center
10:22AM 38.9853 -106.4042 59° Northeast 403 464 27,100 -720 Descending Denver Center
10:23AM 39.0481 -106.2661 60° Northeast 402 463 26,300 -900 Descending Denver Center
10:24AM 39.0992 -106.1528 60° Northeast 402 463 25,300 -1,020 Descending Denver Center
10:25AM 39.1539 -106.0306 60° Northeast 394 453 24,300 -1,080 Descending Denver Center
10:26AM 39.2069 -105.9083 61° Northeast 388 447 23,200 -1,140 Descending Denver Center
10:27AM 39.2689 -105.7675 60° Northeast 384 442 22,000 -1,080 Descending Denver Center
10:28AM 39.3211 -105.6478 61° Northeast 378 435 21,000 -1,080 Descending Denver Center
10:29AM 39.3725 -105.5319 60° Northeast 371 427 19,900 -1,320 Descending Denver Center
10:31AM 39.3667 -105.3000 92° East 325 374 17,000 -1,380 Descending Denver TRACON
10:32AM 39.3461 -105.1853 103° East 328 377 15,800 -960 Descending Denver Center
10:33AM 39.3422 -105.0750 93° East 311 358 15,000 -1,080 Descending Denver Center
10:34AM 39.3397 -104.9642 92° East 290 334 13,700 -1,200 Descending Denver Center
10:35AM 39.3747 -104.8836 61° Northeast 269 310 12,600 -960 Descending Denver Center
10:36AM 39.4364 -104.8356 31° Northeast 260 299 11,800 -1,080 Descending Denver Center
10:37AM 39.5033 -104.7833 31° Northeast 260 299 10,400 -1,080 Descending Denver Center
10:38AM 39.5608 -104.7350 33° Northeast 251 289 9,600 -600 Descending Denver Center
10:39AM 39.6186 -104.6844 34° Northeast 237 273 9,200 -420 Descending Denver Center